createdAt,value
2023-01-19T00:00:38.031Z,68.05
2023-01-19T00:03:06.776Z,69.41
2023-01-19T00:05:36.759Z,68.07
2023-01-19T00:08:16.987Z,67.06
2023-01-19T00:10:48.999Z,66.93
2023-01-19T00:13:20.659Z,65.88
2023-01-19T00:15:54.326Z,68.54
2023-01-19T00:18:22.578Z,68.30
2023-01-19T00:20:53.208Z,67.66
2023-01-19T00:23:24.547Z,68.91
2023-01-19T00:25:54.160Z,68.29
2023-01-19T00:28:32.518Z,68.90
2023-01-19T00:31:00.698Z,67.53
2023-01-19T00:33:31.547Z,67.74
2023-01-19T00:36:01.846Z,66.78
2023-01-19T00:38:31.982Z,68.35
2023-01-19T00:41:01.932Z,68.18
2023-01-19T00:43:30.139Z,67.62
2023-01-19T00:46:00.101Z,66.94
2023-01-19T00:48:28.755Z,67.00
2023-01-19T00:51:01.982Z,67.97
2023-01-19T00:53:33.539Z,67.76
2023-01-19T00:56:05.475Z,68.64
2023-01-19T00:58:33.784Z,69.71
2023-01-19T01:01:05.962Z,68.75
2023-01-19T01:03:38.911Z,68.36
2023-01-19T01:06:08.593Z,67.99
2023-01-19T01:08:36.754Z,68.59
2023-01-19T01:11:07.001Z,67.59
2023-01-19T01:13:37.791Z,67.88
2023-01-19T01:16:09.815Z,67.26
2023-01-19T01:18:37.728Z,67.87
2023-01-19T01:21:09.499Z,67.12
2023-01-19T01:23:37.666Z,68.98
2023-01-19T01:26:08.108Z,68.77
2023-01-19T01:28:40.664Z,67.73
2023-01-19T01:31:08.649Z,68.04
2023-01-19T01:33:41.370Z,69.43
2023-01-19T01:36:16.751Z,68.56
2023-01-19T01:38:44.689Z,69.32
2023-01-19T01:41:17.254Z,68.95
2023-01-19T01:43:47.655Z,69.21
2023-01-19T01:46:21.015Z,68.30
2023-01-19T01:48:52.792Z,68.88
2023-01-19T01:51:27.700Z,66.50
2023-01-19T01:54:06.817Z,67.28
2023-01-19T01:56:41.304Z,67.19
2023-01-19T01:59:12.136Z,68.34
2023-01-19T02:01:58.132Z,67.89
2023-01-19T02:04:27.732Z,67.70
2023-01-19T02:07:12.731Z,68.15
2023-01-19T02:09:57.949Z,68.26
2023-01-19T02:12:44.854Z,68.64
2023-01-19T02:15:19.766Z,68.91
2023-01-19T02:17:47.981Z,67.07
2023-01-19T02:20:17.223Z,68.04
2023-01-19T02:22:49.212Z,67.29
2023-01-19T02:25:20.310Z,66.77
2023-01-19T02:27:51.320Z,67.46
2023-01-19T02:30:24.620Z,68.30
2023-01-19T02:32:52.830Z,67.72
2023-01-19T02:35:26.901Z,68.02
2023-01-19T02:37:57.467Z,67.79
2023-01-19T02:40:30.921Z,67.05
2023-01-19T02:43:04.370Z,68.04
2023-01-19T02:45:33.498Z,67.15
2023-01-19T02:48:03.311Z,67.12
2023-01-19T02:50:41.028Z,67.10
2023-01-19T02:53:21.224Z,67.43
2023-01-19T02:55:54.420Z,67.28
2023-01-19T02:58:28.860Z,68.22
2023-01-19T03:01:08.672Z,68.86
2023-01-19T03:03:46.512Z,67.75
2023-01-19T03:06:20.542Z,68.42
2023-01-19T03:08:55.369Z,67.54
2023-01-19T03:11:29.638Z,68.63
2023-01-19T03:14:01.761Z,70.00
2023-01-19T03:16:32.730Z,70.28
2023-01-19T03:19:06.952Z,69.76
2023-01-19T03:21:37.396Z,68.05
2023-01-19T03:24:10.686Z,68.08
2023-01-19T03:26:44.945Z,68.57
2023-01-19T03:29:16.306Z,68.53
2023-01-19T03:31:49.205Z,70.34
2023-01-19T03:34:22.071Z,71.11
2023-01-19T03:36:54.327Z,70.73
2023-01-19T03:39:28.795Z,71.32
2023-01-19T03:42:01.716Z,71.39
2023-01-19T03:44:30.542Z,70.30
2023-01-19T03:47:02.047Z,71.12
2023-01-19T03:49:33.801Z,72.70
2023-01-19T03:52:02.014Z,72.34
2023-01-19T03:54:31.335Z,70.23
2023-01-19T03:57:00.911Z,70.89
2023-01-19T03:59:28.723Z,69.04
2023-01-19T04:01:56.590Z,69.10
2023-01-19T04:04:26.988Z,70.04
2023-01-19T04:06:54.889Z,69.14
2023-01-19T04:09:28.783Z,69.88
2023-01-19T04:11:58.462Z,69.70
2023-01-19T04:14:31.403Z,70.17
2023-01-19T04:16:59.499Z,70.84
2023-01-19T04:19:27.309Z,71.03
2023-01-19T04:22:15.893Z,70.52
2023-01-19T04:24:58.033Z,69.93
2023-01-19T04:27:32.122Z,70.89
2023-01-19T04:30:02.044Z,69.24
2023-01-19T04:32:30.200Z,68.58
2023-01-19T04:35:02.596Z,67.84
2023-01-19T04:37:33.610Z,68.50
2023-01-19T04:40:01.383Z,67.62
2023-01-19T04:42:32.565Z,67.11
2023-01-19T04:45:01.850Z,66.33
2023-01-19T04:47:32.666Z,68.55
2023-01-19T04:50:05.667Z,69.18
2023-01-19T04:52:35.757Z,69.89
2023-01-19T04:55:10.037Z,69.57
2023-01-19T04:57:37.903Z,69.02
2023-01-19T05:00:10.027Z,68.89
2023-01-19T05:02:38.647Z,67.99
2023-01-19T05:05:10.176Z,66.33
2023-01-19T05:07:38.298Z,65.08
2023-01-19T05:10:10.745Z,66.14
2023-01-19T05:12:38.768Z,67.34
2023-01-19T05:15:09.794Z,68.11
2023-01-19T05:17:38.906Z,69.09
2023-01-19T05:20:11.324Z,69.29
2023-01-19T05:22:43.907Z,68.10
2023-01-19T05:25:11.693Z,70.92
2023-01-19T05:27:44.683Z,69.61
2023-01-19T05:30:15.251Z,69.11
2023-01-19T05:32:46.031Z,70.29
2023-01-19T05:35:18.214Z,70.31
2023-01-19T05:37:47.832Z,70.53
2023-01-19T05:40:15.884Z,70.98
2023-01-19T05:42:43.729Z,72.45
2023-01-19T05:45:12.564Z,73.63
2023-01-19T05:47:49.544Z,74.17
2023-01-19T05:50:17.536Z,74.12
2023-01-19T05:52:45.354Z,73.69
2023-01-19T05:55:16.922Z,74.37
2023-01-19T05:57:45.102Z,72.89
2023-01-19T06:00:14.471Z,71.98
2023-01-19T06:02:49.662Z,72.80
2023-01-19T06:05:20.728Z,72.59
2023-01-19T06:07:51.668Z,73.32
2023-01-19T06:10:20.438Z,72.99
2023-01-19T06:12:51.801Z,71.73
2023-01-19T06:15:22.271Z,71.84
2023-01-19T06:17:56.438Z,71.28
2023-01-19T06:20:24.424Z,72.12
2023-01-19T06:22:55.113Z,72.46
2023-01-19T06:25:27.061Z,72.00
2023-01-19T06:28:09.931Z,69.33
2023-01-19T06:30:43.273Z,68.97
2023-01-19T06:33:15.992Z,69.63
2023-01-19T06:35:44.716Z,68.51
2023-01-19T06:38:18.083Z,67.59
2023-01-19T06:40:53.442Z,67.90
2023-01-19T06:43:24.118Z,70.09
2023-01-19T06:45:52.628Z,71.84
2023-01-19T06:48:25.593Z,72.88
2023-01-19T06:50:53.608Z,72.16
2023-01-19T06:53:22.422Z,72.22
2023-01-19T06:55:50.771Z,71.96
2023-01-19T06:58:19.437Z,72.85
2023-01-19T07:00:47.766Z,72.08
2023-01-19T07:03:21.383Z,71.96
2023-01-19T07:05:55.150Z,72.28
2023-01-19T07:08:25.531Z,72.57
2023-01-19T07:11:26.101Z,72.96
2023-01-19T07:13:52.058Z,71.89
2023-01-19T07:16:20.877Z,72.18
2023-01-19T07:18:50.885Z,71.75
2023-01-19T07:21:21.867Z,70.04
2023-01-19T07:23:50.183Z,69.29
2023-01-19T07:26:25.027Z,69.23
2023-01-19T07:28:55.003Z,68.39
2023-01-19T07:31:23.461Z,69.46
2023-01-19T07:33:51.624Z,68.85
2023-01-19T07:36:22.152Z,69.13
2023-01-19T07:38:54.470Z,68.11
2023-01-19T07:41:22.320Z,67.72
2023-01-19T07:43:52.879Z,67.78
2023-01-19T07:46:29.675Z,68.14
2023-01-19T07:48:57.879Z,68.68
2023-01-19T07:51:28.040Z,68.16
2023-01-19T07:54:00.311Z,69.96
2023-01-19T07:56:32.906Z,69.86
2023-01-19T07:59:01.749Z,68.88
2023-01-19T08:01:29.953Z,69.82
2023-01-19T08:04:00.171Z,70.85
2023-01-19T08:06:37.905Z,72.06
2023-01-19T08:09:07.325Z,70.55
2023-01-19T08:11:37.213Z,71.49
2023-01-19T08:14:11.835Z,72.59
2023-01-19T08:16:40.123Z,71.65
2023-01-19T08:19:10.152Z,70.96
2023-01-19T08:21:42.145Z,70.89
2023-01-19T08:24:19.670Z,72.08
2023-01-19T08:26:51.094Z,71.92
2023-01-19T08:29:19.192Z,70.32
2023-01-19T08:31:48.573Z,71.26
2023-01-19T08:34:19.653Z,70.22
2023-01-19T08:36:50.256Z,69.76
2023-01-19T08:39:19.130Z,68.82
2023-01-19T08:41:50.326Z,69.64
2023-01-19T08:44:20.060Z,67.88
2023-01-19T08:46:52.726Z,67.28
2023-01-19T08:49:22.301Z,69.44
2023-01-19T08:51:54.101Z,69.60
2023-01-19T08:54:23.272Z,69.03
2023-01-19T08:56:51.206Z,69.57
2023-01-19T08:59:19.377Z,67.85
2023-01-19T09:01:49.985Z,68.26
2023-01-19T09:04:17.931Z,68.23
2023-01-19T09:06:49.519Z,67.95
2023-01-19T09:09:18.956Z,68.88
2023-01-19T09:11:47.085Z,69.47
2023-01-19T09:14:17.682Z,70.85
2023-01-19T09:16:47.616Z,69.40
2023-01-19T09:19:15.580Z,68.52
2023-01-19T09:21:45.617Z,69.16
2023-01-19T09:24:13.772Z,67.75
2023-01-19T09:26:45.908Z,67.17
2023-01-19T09:29:16.073Z,67.19
2023-01-19T09:31:49.811Z,66.97
2023-01-19T09:34:17.695Z,66.92
2023-01-19T09:36:45.670Z,67.01
2023-01-19T09:39:14.128Z,67.75
2023-01-19T09:41:49.301Z,68.71
2023-01-19T09:44:19.807Z,67.57
2023-01-19T09:46:48.421Z,67.33
2023-01-19T09:49:19.381Z,64.85
2023-01-19T09:51:48.939Z,64.14
2023-01-19T09:54:20.784Z,65.79
2023-01-19T09:56:52.956Z,67.12
2023-01-19T09:59:25.341Z,67.62
2023-01-19T10:02:04.828Z,68.11
2023-01-19T10:04:36.542Z,65.41
2023-01-19T10:07:13.000Z,65.59
2023-01-19T10:09:50.665Z,67.38
2023-01-19T10:12:32.194Z,66.95
2023-01-19T10:15:07.876Z,67.70
2023-01-19T10:17:46.133Z,66.47
2023-01-19T10:20:19.676Z,67.73
2023-01-19T10:22:52.971Z,66.22
2023-01-19T10:25:23.898Z,65.16
2023-01-19T10:27:54.432Z,64.69
2023-01-19T10:30:27.776Z,66.63
2023-01-19T10:32:59.420Z,64.81
2023-01-19T10:35:27.797Z,65.25
2023-01-19T10:38:03.249Z,65.43
2023-01-19T10:40:38.007Z,66.11
2023-01-19T10:43:43.623Z,66.38
2023-01-19T10:46:32.269Z,68.01
2023-01-19T10:49:03.397Z,69.09
2023-01-19T10:51:31.870Z,65.93
2023-01-19T10:54:03.345Z,67.35
2023-01-19T10:56:35.121Z,65.70
2023-01-19T10:59:09.765Z,65.79
2023-01-19T11:01:38.336Z,64.92
2023-01-19T11:04:29.386Z,65.75
2023-01-19T11:07:21.604Z,66.06
2023-01-19T11:09:52.245Z,65.94
2023-01-19T11:12:21.996Z,68.09
2023-01-19T11:14:53.656Z,68.17
2023-01-19T11:17:26.574Z,68.69
2023-01-19T11:19:56.791Z,67.73
2023-01-19T11:22:28.489Z,68.03
2023-01-19T11:25:00.181Z,65.82
2023-01-19T11:27:32.780Z,67.89
2023-01-19T11:30:09.879Z,66.27
2023-01-19T11:32:41.985Z,66.72
2023-01-19T11:35:36.432Z,67.59
2023-01-19T11:38:27.374Z,65.50
2023-01-19T11:40:59.523Z,65.51
2023-01-19T11:43:43.553Z,65.50
2023-01-19T11:46:19.393Z,65.84
2023-01-19T11:48:50.560Z,65.91
2023-01-19T11:51:22.348Z,63.91
2023-01-19T11:53:53.539Z,65.50
2023-01-19T11:56:25.393Z,64.13
2023-01-19T11:58:53.755Z,64.60
2023-01-19T12:01:25.242Z,64.66
2023-01-19T12:03:58.232Z,65.54
2023-01-19T12:06:31.580Z,64.04
2023-01-19T12:09:03.265Z,65.30
2023-01-19T12:11:44.389Z,63.50
2023-01-19T12:14:20.976Z,64.17
2023-01-19T12:16:52.311Z,65.34
2023-01-19T12:19:30.046Z,65.33
2023-01-19T12:21:58.439Z,63.95
2023-01-19T12:24:30.722Z,64.23
2023-01-19T12:27:00.887Z,65.78
2023-01-19T12:29:31.954Z,64.33
2023-01-19T12:32:21.283Z,66.57
2023-01-19T12:34:51.888Z,65.16
2023-01-19T12:37:43.469Z,62.90
2023-01-19T12:40:22.679Z,64.08
2023-01-19T12:43:04.180Z,61.75
2023-01-19T12:45:35.236Z,62.87
2023-01-19T12:48:11.706Z,61.57
2023-01-19T12:50:40.607Z,61.70
2023-01-19T12:53:18.930Z,63.53
2023-01-19T12:55:49.985Z,62.05
2023-01-19T12:58:19.228Z,62.70
2023-01-19T13:00:48.616Z,61.86
2023-01-19T13:03:47.041Z,67.98
2023-01-19T13:06:15.178Z,70.00
2023-01-19T13:09:01.699Z,70.94
2023-01-19T13:11:34.296Z,71.85
2023-01-19T13:14:34.892Z,70.49
2023-01-19T13:17:39.029Z,68.21
2023-01-19T13:20:29.096Z,66.59
2023-01-19T13:23:19.799Z,68.73
2023-01-19T13:25:55.937Z,67.41
2023-01-19T13:28:32.893Z,66.13
2023-01-19T13:31:03.339Z,65.33
2023-01-19T13:33:40.817Z,66.10
2023-01-19T13:36:19.868Z,65.71
2023-01-19T13:38:52.239Z,65.02
2023-01-19T13:41:22.697Z,62.66
2023-01-19T13:43:55.061Z,63.71
2023-01-19T13:46:25.799Z,64.73
2023-01-19T13:48:56.392Z,65.48
2023-01-19T13:51:28.553Z,64.98
2023-01-19T13:53:57.370Z,68.49
2023-01-19T13:56:28.495Z,66.97
2023-01-19T13:59:13.078Z,65.42
2023-01-19T14:01:43.172Z,64.12
2023-01-19T14:04:34.202Z,64.71
2023-01-19T14:07:07.783Z,64.20
2023-01-19T14:09:39.860Z,63.19
2023-01-19T14:12:13.209Z,61.67
2023-01-19T14:14:41.995Z,63.04
2023-01-19T14:17:27.743Z,66.19
2023-01-19T14:19:56.912Z,66.69
2023-01-19T14:22:42.202Z,66.12
2023-01-19T14:25:27.485Z,65.29
2023-01-19T14:28:30.039Z,68.32
2023-01-19T14:31:00.659Z,69.75
2023-01-19T14:33:46.525Z,68.61
2023-01-19T14:36:32.353Z,68.68
2023-01-19T14:39:02.853Z,67.21
2023-01-19T14:41:38.359Z,64.85
2023-01-19T14:44:10.505Z,64.85
2023-01-19T14:46:39.008Z,64.64
2023-01-19T14:49:08.101Z,63.15
2023-01-19T14:51:41.101Z,64.41
2023-01-19T14:54:20.945Z,64.56
2023-01-19T14:56:49.630Z,65.18
2023-01-19T14:59:18.374Z,63.65
2023-01-19T15:01:50.682Z,62.48
2023-01-19T15:04:18.770Z,63.00
2023-01-19T15:06:47.273Z,63.53
2023-01-19T15:09:17.596Z,65.92
2023-01-19T15:11:51.442Z,64.32
2023-01-19T15:14:20.501Z,64.78
2023-01-19T15:16:49.029Z,65.02
2023-01-19T15:19:18.634Z,65.08
2023-01-19T15:21:49.544Z,64.76
2023-01-19T15:24:19.888Z,64.03
2023-01-19T15:26:47.973Z,65.27
2023-01-19T15:29:21.535Z,65.56
2023-01-19T15:31:49.769Z,64.50
2023-01-19T15:34:17.902Z,63.79
2023-01-19T15:36:46.089Z,63.01
2023-01-19T15:39:16.108Z,64.13
2023-01-19T15:41:45.752Z,63.53
2023-01-19T15:44:18.496Z,64.43
2023-01-19T15:46:49.524Z,64.00
2023-01-19T15:49:19.702Z,62.94
2023-01-19T15:51:54.073Z,63.24
2023-01-19T15:54:22.857Z,64.13
2023-01-19T15:56:55.331Z,64.15
2023-01-19T15:59:23.764Z,64.05
2023-01-19T16:01:51.896Z,65.17
2023-01-19T16:04:20.195Z,63.94
2023-01-19T16:06:50.050Z,62.27
2023-01-19T16:09:20.811Z,62.79
2023-01-19T16:11:50.830Z,63.23
2023-01-19T16:14:22.882Z,62.19
2023-01-19T16:16:53.260Z,63.13
2023-01-19T16:19:24.607Z,63.53
2023-01-19T16:21:52.474Z,64.31
2023-01-19T16:24:29.935Z,63.09
2023-01-19T16:26:57.904Z,63.48
2023-01-19T16:29:27.412Z,62.96
2023-01-19T16:32:08.298Z,63.20
2023-01-19T16:34:41.158Z,62.92
2023-01-19T16:37:09.472Z,63.21
2023-01-19T16:39:37.594Z,62.98
2023-01-19T16:42:11.909Z,62.28
2023-01-19T16:44:43.709Z,63.73
2023-01-19T16:47:11.555Z,63.06
2023-01-19T16:49:42.067Z,64.65
2023-01-19T16:52:10.029Z,63.54
2023-01-19T16:54:42.100Z,64.85
2023-01-19T16:57:13.608Z,64.35
2023-01-19T16:59:50.769Z,65.87
2023-01-19T17:02:18.729Z,64.43
2023-01-19T17:04:46.815Z,62.65
2023-01-19T17:07:19.377Z,62.67
2023-01-19T17:09:56.070Z,63.60
2023-01-19T17:12:26.935Z,65.47
2023-01-19T17:14:56.380Z,65.38
2023-01-19T17:17:29.861Z,66.29
2023-01-19T17:20:00.132Z,66.00
2023-01-19T17:22:30.515Z,66.24
2023-01-19T17:25:02.633Z,66.48
2023-01-19T17:27:30.813Z,65.91
2023-01-19T17:30:01.720Z,67.15
2023-01-19T17:32:30.943Z,65.52
2023-01-19T17:34:58.917Z,67.77
2023-01-19T17:37:30.818Z,66.35
2023-01-19T17:40:02.608Z,65.11
2023-01-19T17:42:32.591Z,64.43
2023-01-19T17:45:07.490Z,64.98
2023-01-19T17:47:35.415Z,64.99
2023-01-19T17:50:03.360Z,63.85
2023-01-19T17:52:33.279Z,63.62
2023-01-19T17:55:03.908Z,64.25
2023-01-19T17:57:34.549Z,64.49
2023-01-19T18:00:04.653Z,64.66
2023-01-19T18:02:37.694Z,64.85
2023-01-19T18:05:12.625Z,65.25
2023-01-19T18:07:43.413Z,64.99
2023-01-19T18:10:16.675Z,65.74
2023-01-19T18:12:45.302Z,65.84
2023-01-19T18:15:18.558Z,66.30
2023-01-19T18:17:49.759Z,65.63
2023-01-19T18:20:18.827Z,66.27
2023-01-19T18:22:49.933Z,66.17
2023-01-19T18:25:25.331Z,66.60
2023-01-19T18:27:57.443Z,67.67
2023-01-19T18:30:26.883Z,68.13
2023-01-19T18:32:58.870Z,65.91
2023-01-19T18:35:30.991Z,67.31
2023-01-19T18:37:59.134Z,64.98
2023-01-19T18:40:29.111Z,65.83
2023-01-19T18:42:57.160Z,64.97
2023-01-19T18:45:26.691Z,64.94
2023-01-19T18:47:54.704Z,65.86
2023-01-19T18:50:22.628Z,66.67
2023-01-19T18:52:53.702Z,66.31
2023-01-19T18:55:21.833Z,66.25
2023-01-19T18:57:52.648Z,66.19
2023-01-19T19:00:23.667Z,67.08
2023-01-19T19:02:55.696Z,67.22
2023-01-19T19:05:24.291Z,67.18
2023-01-19T19:07:52.430Z,65.82
2023-01-19T19:10:20.708Z,66.31
2023-01-19T19:12:49.011Z,65.99
2023-01-19T19:15:19.116Z,66.76
2023-01-19T19:17:49.817Z,65.61
2023-01-19T19:20:22.765Z,65.50
2023-01-19T19:22:56.660Z,64.97
2023-01-19T19:25:27.225Z,65.15
2023-01-19T19:27:57.569Z,66.82
2023-01-19T19:30:30.886Z,67.71
2023-01-19T19:33:02.073Z,66.04
2023-01-19T19:35:31.603Z,68.24
2023-01-19T19:38:02.950Z,68.94
2023-01-19T19:40:32.999Z,70.89
2023-01-19T19:43:01.155Z,69.64
2023-01-19T19:45:32.314Z,68.02
2023-01-19T19:48:00.621Z,66.56
2023-01-19T19:50:28.684Z,66.55
2023-01-19T19:52:58.913Z,66.12
2023-01-19T19:55:32.083Z,66.49
2023-01-19T19:58:02.565Z,67.30
2023-01-19T20:00:31.705Z,69.89
2023-01-19T20:02:59.634Z,68.75
2023-01-19T20:05:28.323Z,68.23
2023-01-19T20:07:57.738Z,65.80
2023-01-19T20:10:26.374Z,65.52
2023-01-19T20:12:54.229Z,66.19
2023-01-19T20:15:24.922Z,66.36
2023-01-19T20:17:56.211Z,67.67
2023-01-19T20:20:24.293Z,67.85
2023-01-19T20:22:52.963Z,68.42
2023-01-19T20:25:22.359Z,67.28
2023-01-19T20:27:51.912Z,66.83
2023-01-19T20:30:20.002Z,66.18
2023-01-19T20:32:51.593Z,65.52
2023-01-19T20:35:22.243Z,66.26
2023-01-19T20:37:51.791Z,65.41
2023-01-19T20:40:20.995Z,66.67
2023-01-19T20:42:50.259Z,67.05
2023-01-19T20:45:19.889Z,65.85
2023-01-19T20:47:47.743Z,64.72
2023-01-19T20:50:15.754Z,64.53
2023-01-19T20:52:43.731Z,66.39
2023-01-19T20:55:14.081Z,67.07
2023-01-19T20:57:42.502Z,65.23
2023-01-19T21:00:18.269Z,65.73
2023-01-19T21:02:46.578Z,65.90
2023-01-19T21:05:15.016Z,65.21
2023-01-19T21:07:43.013Z,65.58
2023-01-19T21:10:11.710Z,64.14
2023-01-19T21:12:42.549Z,63.58
2023-01-19T21:15:15.660Z,63.86
2023-01-19T21:17:45.187Z,64.54
2023-01-19T21:20:13.707Z,64.39
2023-01-19T21:22:42.961Z,64.95
2023-01-19T21:25:11.531Z,65.84
2023-01-19T21:27:39.561Z,64.87
2023-01-19T21:30:11.927Z,65.95
2023-01-19T21:32:42.015Z,65.19
2023-01-19T21:35:10.492Z,64.41
2023-01-19T21:37:40.716Z,64.52
2023-01-19T21:40:10.021Z,64.79
2023-01-19T21:42:37.850Z,65.52
2023-01-19T21:45:08.431Z,67.25
2023-01-19T21:47:36.735Z,65.93
2023-01-19T21:50:06.755Z,66.37
2023-01-19T21:52:37.028Z,65.74
2023-01-19T21:55:09.863Z,65.85
2023-01-19T21:57:37.753Z,63.89
2023-01-19T22:00:08.045Z,64.92
2023-01-19T22:02:39.304Z,63.86
2023-01-19T22:05:09.802Z,63.97
2023-01-19T22:07:38.889Z,67.06
2023-01-19T22:10:09.245Z,66.04
2023-01-19T22:12:39.333Z,65.60
2023-01-19T22:15:22.225Z,68.09
2023-01-19T22:17:59.296Z,66.57
2023-01-19T22:20:28.615Z,66.90
2023-01-19T22:22:57.401Z,65.89
2023-01-19T22:25:27.933Z,65.69
2023-01-19T22:27:59.494Z,67.28
2023-01-19T22:30:29.882Z,68.31
2023-01-19T22:32:57.880Z,67.61
2023-01-19T22:35:30.205Z,67.31
2023-01-19T22:38:03.602Z,67.52
2023-01-19T22:40:33.474Z,66.47
2023-01-19T22:43:01.350Z,65.86
2023-01-19T22:45:29.319Z,65.79
2023-01-19T22:48:01.201Z,66.12
2023-01-19T22:50:30.526Z,65.55
2023-01-19T22:55:51.151Z,68.17
2023-01-19T22:58:21.656Z,67.84
2023-01-19T23:00:54.384Z,65.93
2023-01-19T23:03:22.523Z,67.58
2023-01-19T23:05:54.972Z,68.91
2023-01-19T23:08:22.895Z,69.44
2023-01-19T23:10:50.789Z,70.16
2023-01-19T23:13:18.684Z,68.67
2023-01-19T23:15:46.516Z,67.31
2023-01-19T23:18:16.029Z,68.76
2023-01-19T23:20:47.699Z,68.80
2023-01-19T23:23:17.260Z,66.16
2023-01-19T23:26:01.865Z,67.59
2023-01-19T23:28:32.936Z,69.08
2023-01-19T23:31:00.936Z,69.06
2023-01-19T23:33:45.537Z,70.91
2023-01-19T23:36:19.268Z,69.90
2023-01-19T23:38:54.076Z,70.46
2023-01-19T23:41:28.285Z,69.36
2023-01-19T23:43:56.340Z,69.24
2023-01-19T23:46:26.942Z,67.67
2023-01-19T23:48:54.943Z,66.71
2023-01-19T23:51:27.494Z,67.70
2023-01-19T23:53:58.595Z,68.49
2023-01-19T23:56:27.870Z,69.61
2023-01-19T23:58:59.270Z,67.90
